createdAt,value
2023-02-04T00:02:04.154Z,7.10
2023-02-04T00:04:30.708Z,7.10
2023-02-04T00:06:57.227Z,7.10
2023-02-04T00:09:23.731Z,7.10
2023-02-04T00:11:50.314Z,7.10
2023-02-04T00:14:16.816Z,7.10
2023-02-04T00:16:43.308Z,7.10
2023-02-04T00:19:09.870Z,7.10
2023-02-04T00:21:36.410Z,7.20
2023-02-04T00:24:03.014Z,7.20
2023-02-04T00:26:29.560Z,7.20
2023-02-04T00:28:56.346Z,7.10
2023-02-04T00:31:22.949Z,7.10
2023-02-04T00:33:49.518Z,7.10
2023-02-04T00:36:16.050Z,7.10
2023-02-04T00:38:42.567Z,7.10
2023-02-04T00:41:09.092Z,7.10
2023-02-04T00:43:35.635Z,7.10
2023-02-04T00:46:02.173Z,7.10
2023-02-04T00:48:28.738Z,7.10
2023-02-04T00:50:55.300Z,7.00
2023-02-04T00:53:21.944Z,7.00
2023-02-04T00:55:48.480Z,6.70
2023-02-04T00:58:14.988Z,7.10
2023-02-04T01:00:41.556Z,7.10
2023-02-04T01:03:08.227Z,7.10
2023-02-04T01:05:34.790Z,7.00
2023-02-04T01:08:01.412Z,7.00
2023-02-04T01:10:28.294Z,7.00
2023-02-04T01:12:55.099Z,7.10
2023-02-04T01:15:22.697Z,7.00
2023-02-04T01:17:49.424Z,7.00
2023-02-04T01:20:16.168Z,7.00
2023-02-04T01:22:42.812Z,7.00
2023-02-04T01:25:09.749Z,7.00
2023-02-04T01:27:36.371Z,7.00
2023-02-04T01:30:04.016Z,7.00
2023-02-04T01:32:30.536Z,6.90
2023-02-04T01:34:57.316Z,6.90
2023-02-04T01:37:23.865Z,6.90
2023-02-04T01:39:50.407Z,6.90
2023-02-04T01:42:17.022Z,6.90
2023-02-04T01:44:43.662Z,6.90
2023-02-04T01:47:10.390Z,7.00
2023-02-04T01:49:36.925Z,6.90
2023-02-04T01:52:03.627Z,6.90
2023-02-04T01:54:30.188Z,6.90
2023-02-04T01:56:56.914Z,6.90
2023-02-04T01:59:23.556Z,6.80
2023-02-04T02:01:51.296Z,7.00
2023-02-04T02:04:19.112Z,6.90
2023-02-04T02:06:47.829Z,6.80
2023-02-04T02:09:15.158Z,6.90
2023-02-04T02:11:41.823Z,6.90
2023-02-04T02:14:08.549Z,6.90
2023-02-04T02:16:35.224Z,6.90
2023-02-04T02:19:01.866Z,7.00
2023-02-04T02:21:34.925Z,6.90
2023-02-04T02:24:15.785Z,6.90
2023-02-04T02:26:42.270Z,6.80
2023-02-04T02:29:08.786Z,6.90
2023-02-04T02:31:35.595Z,7.00
2023-02-04T02:34:02.206Z,6.80
2023-02-04T02:36:28.731Z,6.80
2023-02-04T02:38:55.884Z,6.70
2023-02-04T02:41:22.444Z,6.80
2023-02-04T02:43:49.033Z,6.70
2023-02-04T02:46:15.629Z,6.70
2023-02-04T02:48:42.214Z,6.70
2023-02-04T02:51:08.792Z,6.60
2023-02-04T02:53:35.756Z,6.60
2023-02-04T02:56:04.684Z,6.60
2023-02-04T02:58:32.737Z,6.70
2023-02-04T03:00:59.960Z,6.60
2023-02-04T03:03:27.951Z,6.60
2023-02-04T03:05:56.282Z,6.60
2023-02-04T03:08:22.952Z,6.60
2023-02-04T03:10:49.522Z,6.80
2023-02-04T03:13:17.161Z,6.60
2023-02-04T03:15:44.923Z,6.50
2023-02-04T03:18:11.964Z,6.50
2023-02-04T03:20:39.057Z,6.40
2023-02-04T03:23:05.566Z,6.40
2023-02-04T03:25:32.079Z,6.30
2023-02-04T03:27:58.645Z,6.30
2023-02-04T03:30:25.760Z,6.40
2023-02-04T03:32:52.334Z,6.30
2023-02-04T03:35:19.287Z,6.20
2023-02-04T03:37:45.844Z,6.20
2023-02-04T03:40:12.524Z,6.20
2023-02-04T03:42:39.130Z,6.20
2023-02-04T03:45:05.815Z,6.20
2023-02-04T03:47:32.591Z,6.20
2023-02-04T03:49:59.165Z,6.20
2023-02-04T03:52:25.682Z,6.20
2023-02-04T03:54:52.168Z,6.20
2023-02-04T03:57:18.761Z,6.30
2023-02-04T03:59:45.262Z,6.30
2023-02-04T04:02:11.800Z,6.20
2023-02-04T04:04:38.399Z,6.20
2023-02-04T04:07:04.983Z,6.20
2023-02-04T04:09:31.513Z,6.20
2023-02-04T04:11:58.048Z,6.20
2023-02-04T04:14:24.562Z,6.20
2023-02-04T04:16:51.086Z,6.20
2023-02-04T04:19:17.596Z,6.20
2023-02-04T04:21:44.114Z,6.20
2023-02-04T04:24:10.616Z,6.20
2023-02-04T04:26:37.281Z,6.20
2023-02-04T04:29:03.870Z,6.20
2023-02-04T04:31:30.990Z,6.20
2023-02-04T04:33:57.875Z,6.10
2023-02-04T04:36:24.416Z,6.10
2023-02-04T04:38:50.941Z,6.00
2023-02-04T04:41:17.473Z,6.00
2023-02-04T04:43:43.993Z,6.00
2023-02-04T04:46:10.517Z,6.00
2023-02-04T04:48:37.040Z,5.90
2023-02-04T04:51:03.719Z,6.00
2023-02-04T04:53:30.290Z,6.00
2023-02-04T04:55:56.872Z,6.00
2023-02-04T04:58:23.390Z,6.00
2023-02-04T05:00:49.939Z,6.00
2023-02-04T05:03:16.468Z,5.90
2023-02-04T05:05:44.212Z,5.90
2023-02-04T05:08:13.263Z,5.90
2023-02-04T05:10:40.315Z,6.00
2023-02-04T05:13:06.952Z,5.90
2023-02-04T05:15:33.613Z,5.90
2023-02-04T05:18:00.201Z,6.00
2023-02-04T05:20:26.765Z,6.00
2023-02-04T05:22:53.316Z,6.00
2023-02-04T05:25:19.793Z,6.00
2023-02-04T05:27:46.337Z,6.00
2023-02-04T05:30:13.291Z,6.00
2023-02-04T05:32:39.792Z,6.00
2023-02-04T05:35:06.590Z,5.90
2023-02-04T05:37:33.140Z,5.90
2023-02-04T05:39:59.677Z,5.90
2023-02-04T05:42:26.239Z,5.90
2023-02-04T05:44:52.758Z,5.90
2023-02-04T05:47:20.426Z,6.00
2023-02-04T05:49:47.006Z,5.90
2023-02-04T05:52:13.557Z,5.80
2023-02-04T05:54:40.119Z,5.80
2023-02-04T05:57:06.620Z,5.80
2023-02-04T05:59:33.134Z,5.80
2023-02-04T06:01:59.635Z,5.80
2023-02-04T06:04:26.244Z,5.80
2023-02-04T06:06:52.800Z,5.80
2023-02-04T06:09:19.368Z,5.70
2023-02-04T06:11:45.903Z,5.70
2023-02-04T06:14:12.564Z,5.60
2023-02-04T06:16:39.183Z,5.60
2023-02-04T06:19:05.768Z,5.60
2023-02-04T06:21:32.395Z,5.60
2023-02-04T06:23:58.917Z,5.60
2023-02-04T06:26:25.491Z,5.60
2023-02-04T06:28:52.405Z,5.50
2023-02-04T06:31:18.967Z,5.50
2023-02-04T06:33:45.518Z,5.50
2023-02-04T06:36:12.121Z,5.50
2023-02-04T06:38:38.748Z,5.50
2023-02-04T06:41:05.374Z,5.40
2023-02-04T06:43:31.958Z,5.40
2023-02-04T06:45:58.506Z,5.40
2023-02-04T06:48:25.159Z,5.40
2023-02-04T06:50:51.739Z,5.40
2023-02-04T06:53:18.301Z,5.30
2023-02-04T06:55:44.831Z,5.20
2023-02-04T06:58:11.392Z,5.40
2023-02-04T07:00:38.012Z,4.90
2023-02-04T07:03:04.757Z,4.70
2023-02-04T07:05:31.941Z,4.60
2023-02-04T07:07:58.569Z,4.60
2023-02-04T07:10:25.191Z,4.60
2023-02-04T07:12:51.716Z,4.50
2023-02-04T07:15:18.346Z,4.50
2023-02-04T07:17:44.829Z,4.60
2023-02-04T07:20:11.690Z,4.40
2023-02-04T07:22:38.222Z,4.40
2023-02-04T07:25:04.947Z,4.30
2023-02-04T07:27:31.544Z,4.40
2023-02-04T07:29:58.098Z,4.40
2023-02-04T07:32:24.570Z,4.50
2023-02-04T07:34:51.063Z,4.50
2023-02-04T07:37:17.600Z,4.50
2023-02-04T07:39:44.108Z,4.50
2023-02-04T07:42:10.584Z,4.40
2023-02-04T07:44:37.828Z,4.50
2023-02-04T07:47:04.427Z,4.40
2023-02-04T07:49:30.954Z,4.50
2023-02-04T07:51:57.844Z,4.50
2023-02-04T07:54:24.395Z,4.50
2023-02-04T07:56:50.933Z,4.50
2023-02-04T07:59:17.466Z,4.50
2023-02-04T08:01:44.125Z,4.70
2023-02-04T08:04:10.678Z,4.90
2023-02-04T08:06:37.196Z,5.00
2023-02-04T08:09:03.964Z,5.10
2023-02-04T08:11:30.545Z,5.10
2023-02-04T08:13:57.166Z,5.30
2023-02-04T08:16:24.187Z,5.40
2023-02-04T08:18:50.835Z,5.60
2023-02-04T08:21:19.227Z,5.80
2023-02-04T08:23:46.008Z,6.10
2023-02-04T08:26:12.576Z,6.10
2023-02-04T08:28:39.183Z,6.20
2023-02-04T08:31:07.070Z,6.20
2023-02-04T08:33:33.697Z,6.40
2023-02-04T08:36:00.356Z,6.30
2023-02-04T08:38:27.191Z,6.40
2023-02-04T08:40:53.849Z,6.40
2023-02-04T08:43:20.389Z,6.40
2023-02-04T08:45:46.916Z,6.30
2023-02-04T08:48:13.441Z,6.20
2023-02-04T08:50:39.999Z,6.20
2023-02-04T08:53:06.496Z,6.00
2023-02-04T08:55:33.104Z,6.10
2023-02-04T08:58:01.218Z,6.00
2023-02-04T09:00:27.805Z,6.10
2023-02-04T09:02:54.330Z,6.10
2023-02-04T09:05:20.905Z,6.00
2023-02-04T09:07:47.456Z,6.00
2023-02-04T09:10:14.043Z,6.00
2023-02-04T09:12:42.019Z,6.00
2023-02-04T09:15:09.716Z,6.20
2023-02-04T09:17:37.243Z,6.20
2023-02-04T09:20:04.669Z,6.40
2023-02-04T09:22:31.477Z,6.60
2023-02-04T09:24:58.014Z,6.50
2023-02-04T09:27:24.518Z,6.60
2023-02-04T09:29:51.040Z,6.70
2023-02-04T09:32:17.548Z,6.60
2023-02-04T09:34:44.141Z,6.60
2023-02-04T09:37:10.683Z,6.60
2023-02-04T09:39:37.234Z,6.70
2023-02-04T09:42:03.850Z,6.80
2023-02-04T09:44:30.459Z,7.00
2023-02-04T09:46:59.287Z,7.10
2023-02-04T09:49:26.484Z,7.00
2023-02-04T09:51:54.217Z,7.00
2023-02-04T09:54:21.659Z,7.00
2023-02-04T09:56:48.405Z,7.00
2023-02-04T09:59:19.873Z,7.30
2023-02-04T10:01:55.843Z,7.40
2023-02-04T10:04:22.789Z,7.50
2023-02-04T10:06:49.496Z,7.40
2023-02-04T10:09:16.560Z,7.30
2023-02-04T10:11:44.530Z,7.30
2023-02-04T10:14:14.063Z,7.00
2023-02-04T10:16:43.308Z,6.90
2023-02-04T10:19:13.070Z,6.80
2023-02-04T10:21:42.703Z,6.70
2023-02-04T10:24:26.169Z,6.60
2023-02-04T10:26:52.769Z,6.50
2023-02-04T10:29:20.836Z,6.40
2023-02-04T10:31:49.092Z,6.40
2023-02-04T10:34:18.745Z,6.40
2023-02-04T10:36:50.162Z,6.40
2023-02-04T10:39:16.847Z,6.40
2023-02-04T10:41:53.506Z,6.60
2023-02-04T10:44:25.310Z,6.50
2023-02-04T10:46:59.061Z,6.70
2023-02-04T10:49:25.604Z,6.80
2023-02-04T10:51:52.800Z,6.90
2023-02-04T10:54:32.815Z,6.90
2023-02-04T10:57:00.452Z,7.00
2023-02-04T10:59:27.888Z,7.20
2023-02-04T11:01:59.259Z,7.10
2023-02-04T11:04:26.541Z,7.00
2023-02-04T11:06:53.217Z,7.10
2023-02-04T11:09:19.742Z,9.60
2023-02-04T11:11:47.724Z,11.30
2023-02-04T11:14:25.341Z,12.30
2023-02-04T11:16:53.553Z,13.10
2023-02-04T11:19:31.251Z,12.40
2023-02-04T11:22:04.989Z,10.80
2023-02-04T11:24:33.285Z,9.80
2023-02-04T11:27:19.710Z,9.00
2023-02-04T11:29:47.793Z,8.70
2023-02-04T11:32:30.146Z,8.50
2023-02-04T11:35:06.777Z,8.30
2023-02-04T11:37:33.269Z,7.90
2023-02-04T11:40:01.167Z,7.60
2023-02-04T11:42:41.095Z,7.50
2023-02-04T11:45:19.902Z,7.30
2023-02-04T11:47:46.724Z,7.20
2023-02-04T11:50:17.475Z,7.00
2023-02-04T11:52:44.043Z,7.00
2023-02-04T11:55:10.879Z,7.00
2023-02-04T11:57:38.365Z,7.00
2023-02-04T12:00:05.534Z,7.00
2023-02-04T12:02:41.247Z,7.20
2023-02-04T12:05:15.203Z,7.20
2023-02-04T12:07:42.232Z,7.20
2023-02-04T12:10:15.094Z,7.20
2023-02-04T12:12:57.765Z,7.30
2023-02-04T12:15:25.736Z,7.50
2023-02-04T12:18:02.641Z,7.50
2023-02-04T12:20:29.306Z,7.50
2023-02-04T12:22:56.117Z,7.50
2023-02-04T12:25:23.012Z,7.60
2023-02-04T12:27:49.576Z,7.50
2023-02-04T12:30:18.426Z,7.40
2023-02-04T12:32:44.932Z,7.30
2023-02-04T12:35:11.517Z,7.30
2023-02-04T12:37:38.075Z,7.20
2023-02-04T12:40:04.939Z,7.10
2023-02-04T12:42:31.517Z,7.20
2023-02-04T12:44:58.021Z,7.20
2023-02-04T12:47:24.517Z,7.20
2023-02-04T12:49:51.093Z,7.20
2023-02-04T12:52:17.780Z,7.20
2023-02-04T12:54:44.383Z,7.40
2023-02-04T12:57:11.661Z,7.10
2023-02-04T12:59:38.282Z,6.90
2023-02-04T13:02:04.963Z,6.90
2023-02-04T13:04:31.546Z,6.80
2023-02-04T13:06:58.157Z,7.00
2023-02-04T13:09:24.704Z,7.10
2023-02-04T13:11:51.200Z,7.30
2023-02-04T13:14:17.709Z,7.20
2023-02-04T13:16:44.249Z,7.30
2023-02-04T13:19:10.809Z,7.20
2023-02-04T13:21:37.356Z,7.30
2023-02-04T13:24:04.000Z,7.40
2023-02-04T13:26:30.570Z,7.50
2023-02-04T13:28:57.134Z,7.70
2023-02-04T13:31:23.775Z,7.60
2023-02-04T13:33:50.346Z,7.70
2023-02-04T13:36:16.926Z,7.80
2023-02-04T13:38:43.479Z,7.80
2023-02-04T13:41:10.062Z,7.70
2023-02-04T13:43:36.624Z,7.60
2023-02-04T13:46:05.310Z,7.60
2023-02-04T13:48:31.897Z,7.60
2023-02-04T13:50:58.488Z,7.70
2023-02-04T13:53:30.823Z,7.80
2023-02-04T13:55:58.164Z,7.70
2023-02-04T13:58:25.206Z,7.80
2023-02-04T14:00:51.813Z,7.80
2023-02-04T14:03:18.403Z,7.90
2023-02-04T14:05:44.962Z,7.90
2023-02-04T14:08:11.453Z,8.00
2023-02-04T14:10:38.866Z,8.20
2023-02-04T14:13:05.551Z,8.70
2023-02-04T14:15:32.261Z,9.10
2023-02-04T14:17:58.752Z,9.30
2023-02-04T14:20:25.261Z,9.40
2023-02-04T14:22:51.755Z,9.10
2023-02-04T14:25:18.373Z,9.00
2023-02-04T14:27:44.925Z,8.80
2023-02-04T14:30:21.952Z,8.80
2023-02-04T14:32:48.494Z,8.70
2023-02-04T14:35:15.628Z,8.70
2023-02-04T14:37:42.181Z,8.60
2023-02-04T14:40:09.580Z,8.30
2023-02-04T14:42:37.225Z,8.00
2023-02-04T14:45:05.387Z,7.90
2023-02-04T14:47:32.602Z,7.90
2023-02-04T14:49:59.103Z,7.80
2023-02-04T14:52:25.635Z,7.80
2023-02-04T14:54:52.256Z,7.70
2023-02-04T14:57:19.134Z,7.50
2023-02-04T14:59:45.683Z,7.40
2023-02-04T15:02:15.184Z,7.30
2023-02-04T15:04:42.529Z,7.30
2023-02-04T15:07:09.034Z,7.40
2023-02-04T15:09:35.532Z,7.40
2023-02-04T15:12:02.339Z,7.30
2023-02-04T15:14:28.910Z,7.20
2023-02-04T15:16:55.550Z,7.20
2023-02-04T15:19:23.627Z,7.00
2023-02-04T15:21:50.262Z,7.00
2023-02-04T15:24:16.809Z,6.90
2023-02-04T15:26:43.446Z,7.00
2023-02-04T15:29:09.981Z,7.00
2023-02-04T15:31:36.647Z,6.80
2023-02-04T15:34:04.750Z,6.80
2023-02-04T15:36:32.461Z,6.80
2023-02-04T15:38:58.994Z,6.60
2023-02-04T15:41:25.972Z,6.40
2023-02-04T15:43:52.591Z,6.30
2023-02-04T15:46:19.164Z,6.30
2023-02-04T15:48:45.840Z,6.20
2023-02-04T15:51:12.400Z,6.20
2023-02-04T15:53:38.990Z,6.10
2023-02-04T15:56:05.967Z,6.00
2023-02-04T15:58:32.478Z,5.90
2023-02-04T16:00:59.021Z,5.80
2023-02-04T16:03:25.626Z,5.80
2023-02-04T16:05:52.198Z,5.80
2023-02-04T16:08:18.743Z,5.80
2023-02-04T16:10:45.302Z,5.70
2023-02-04T16:13:11.791Z,5.70
2023-02-04T16:15:38.400Z,5.60
2023-02-04T16:18:04.964Z,5.60
2023-02-04T16:20:31.704Z,5.60
2023-02-04T16:22:58.260Z,5.50
2023-02-04T16:25:25.264Z,5.50
2023-02-04T16:27:51.825Z,5.40
2023-02-04T16:30:18.478Z,5.40
2023-02-04T16:32:45.029Z,5.40
2023-02-04T16:35:11.540Z,5.40
2023-02-04T16:37:38.141Z,5.30
2023-02-04T16:40:05.682Z,5.20
2023-02-04T16:42:32.229Z,5.30
2023-02-04T16:44:59.236Z,5.10
2023-02-04T16:47:25.822Z,5.10
2023-02-04T16:49:52.441Z,5.00
2023-02-04T16:52:19.020Z,4.90
2023-02-04T16:54:45.621Z,4.90
2023-02-04T16:57:14.547Z,4.80
2023-02-04T16:59:41.132Z,4.80
2023-02-04T17:02:07.692Z,4.80
2023-02-04T17:04:34.602Z,4.80
2023-02-04T17:07:01.126Z,4.80
2023-02-04T17:09:28.016Z,4.70
2023-02-04T17:11:54.619Z,4.70
2023-02-04T17:14:22.146Z,4.60
2023-02-04T17:16:51.459Z,4.40
2023-02-04T17:19:18.861Z,4.40
2023-02-04T17:21:45.672Z,4.40
2023-02-04T17:24:12.574Z,4.20
2023-02-04T17:26:39.652Z,4.10
2023-02-04T17:29:07.597Z,4.10
2023-02-04T17:31:34.659Z,4.10
2023-02-04T17:34:01.468Z,4.00
2023-02-04T17:36:30.051Z,3.90
2023-02-04T17:38:56.760Z,3.80
2023-02-04T17:41:23.587Z,3.80
2023-02-04T17:43:50.562Z,3.70
2023-02-04T17:46:17.122Z,3.70
2023-02-04T17:48:43.666Z,3.60
2023-02-04T17:51:10.263Z,3.60
2023-02-04T17:53:38.748Z,3.50
2023-02-04T17:56:09.675Z,3.40
2023-02-04T17:58:37.627Z,3.40
2023-02-04T18:01:14.767Z,3.30
2023-02-04T18:03:46.132Z,3.30
2023-02-04T18:06:15.840Z,3.20
2023-02-04T18:08:42.395Z,3.00
2023-02-04T18:11:35.404Z,3.00
2023-02-04T18:14:05.455Z,3.00
2023-02-04T18:16:33.728Z,3.00
2023-02-04T18:19:35.060Z,2.90
2023-02-04T18:22:05.509Z,2.80
2023-02-04T18:24:39.715Z,2.70
2023-02-04T18:27:21.135Z,2.60
2023-02-04T18:29:50.754Z,2.60
2023-02-04T18:32:21.101Z,2.50
2023-02-04T18:34:48.956Z,2.40
2023-02-04T18:37:33.653Z,2.40
2023-02-04T18:40:16.440Z,2.40
2023-02-04T18:42:43.933Z,2.40
2023-02-04T18:45:13.896Z,2.30
2023-02-04T18:47:41.091Z,2.30
2023-02-04T18:50:20.092Z,2.20
2023-02-04T18:52:46.754Z,2.20
2023-02-04T18:55:26.497Z,2.20
2023-02-04T18:57:53.047Z,2.10
2023-02-04T19:00:23.299Z,2.10
2023-02-04T19:02:52.362Z,2.10
2023-02-04T19:05:26.939Z,2.00
2023-02-04T19:08:05.710Z,2.00
2023-02-04T19:10:32.449Z,1.90
2023-02-04T19:13:18.052Z,1.80
2023-02-04T19:15:45.534Z,1.70
2023-02-04T19:18:28.779Z,1.70
2023-02-04T19:20:56.249Z,1.70
2023-02-04T19:23:23.818Z,1.60
2023-02-04T19:25:51.735Z,1.50
2023-02-04T19:28:25.090Z,1.60
2023-02-04T19:31:10.604Z,1.50
2023-02-04T19:33:42.654Z,1.40
2023-02-04T19:36:23.341Z,1.40
2023-02-04T19:38:52.929Z,1.40
2023-02-04T19:41:27.277Z,1.30
2023-02-04T19:44:21.146Z,1.30
2023-02-04T19:46:47.636Z,1.20
2023-02-04T19:49:22.968Z,1.20
2023-02-04T19:51:53.724Z,1.10
2023-02-04T19:54:24.035Z,1.10
2023-02-04T19:56:51.618Z,1.10
2023-02-04T19:59:21.254Z,1.00
2023-02-04T20:01:47.837Z,1.00
2023-02-04T20:04:17.768Z,0.90
2023-02-04T20:06:45.339Z,0.80
2023-02-04T20:09:26.499Z,0.80
2023-02-04T20:11:58.162Z,0.70
2023-02-04T20:14:35.154Z,0.80
2023-02-04T20:17:03.496Z,0.70
2023-02-04T20:19:30.025Z,0.60
2023-02-04T20:22:15.366Z,0.60
2023-02-04T20:24:42.446Z,0.60
2023-02-04T20:27:23.276Z,0.50
2023-02-04T20:29:50.913Z,0.40
2023-02-04T20:32:26.200Z,0.40
2023-02-04T20:34:57.120Z,0.40
2023-02-04T20:37:26.371Z,0.40
2023-02-04T20:39:52.894Z,0.90
2023-02-04T20:42:39.858Z,0.50
2023-02-04T20:45:12.529Z,0.60
2023-02-04T20:47:39.054Z,0.50
2023-02-04T20:50:25.535Z,0.60
2023-02-04T20:52:52.025Z,0.60
2023-02-04T20:55:34.744Z,0.60
2023-02-04T20:58:07.413Z,0.60
2023-02-04T21:00:39.048Z,0.50
2023-02-04T21:03:20.988Z,0.40
2023-02-04T21:05:50.138Z,0.40
2023-02-04T21:08:22.669Z,0.30
2023-02-04T21:10:49.285Z,0.30
2023-02-04T21:13:15.817Z,0.20
2023-02-04T21:15:42.355Z,0.20
2023-02-04T21:18:08.922Z,0.20
2023-02-04T21:20:36.988Z,0.10
2023-02-04T21:23:03.831Z,0.10
2023-02-04T21:25:30.664Z,0.00
2023-02-04T21:27:57.453Z,0.00
2023-02-04T21:30:26.120Z,0.00
2023-02-04T21:32:52.659Z,0.00
2023-02-04T21:35:24.238Z,0.00
2023-02-04T21:37:54.554Z,0.00
2023-02-04T21:40:21.997Z,-0.10
2023-02-04T21:42:49.135Z,-0.10
2023-02-04T21:45:17.406Z,-0.20
2023-02-04T21:47:44.498Z,-0.20
2023-02-04T21:50:11.818Z,-0.20
2023-02-04T21:52:38.371Z,0.40
2023-02-04T21:55:05.074Z,-0.30
2023-02-04T21:57:32.165Z,-0.30
2023-02-04T21:59:58.771Z,-0.30
2023-02-04T22:02:25.530Z,-0.30
2023-02-04T22:04:52.590Z,-0.30
2023-02-04T22:07:19.438Z,-0.40
2023-02-04T22:09:48.022Z,-0.50
2023-02-04T22:12:14.585Z,-0.50
2023-02-04T22:14:41.094Z,-0.50
2023-02-04T22:17:07.650Z,-0.60
2023-02-04T22:19:34.159Z,-0.70
2023-02-04T22:22:00.689Z,-0.60
2023-02-04T22:24:27.178Z,-0.60
2023-02-04T22:26:53.776Z,-0.60
2023-02-04T22:29:23.500Z,-0.70
2023-02-04T22:31:50.253Z,-0.60
2023-02-04T22:34:16.811Z,-0.60
2023-02-04T22:36:43.451Z,-0.70
2023-02-04T22:39:09.950Z,-0.70
2023-02-04T22:41:36.515Z,-0.70
2023-02-04T22:44:03.155Z,-0.80
2023-02-04T22:46:29.868Z,-0.70
2023-02-04T22:48:56.652Z,-0.80
2023-02-04T22:51:23.295Z,-0.80
2023-02-04T22:53:49.814Z,-0.90
2023-02-04T22:56:16.343Z,-0.90
2023-02-04T22:58:42.978Z,-1.00
2023-02-04T23:01:09.579Z,-1.00
2023-02-04T23:03:36.087Z,-1.00
2023-02-04T23:06:02.636Z,-0.90
2023-02-04T23:08:29.182Z,-1.00
2023-02-04T23:10:55.735Z,-1.00
2023-02-04T23:13:22.344Z,-1.00
2023-02-04T23:15:49.038Z,-1.00
2023-02-04T23:18:15.617Z,-1.00
2023-02-04T23:20:42.133Z,-1.10
2023-02-04T23:23:09.164Z,-1.10
2023-02-04T23:25:35.846Z,-1.20
2023-02-04T23:28:02.545Z,-1.10
2023-02-04T23:30:29.206Z,-1.10
2023-02-04T23:32:55.745Z,-1.10
2023-02-04T23:35:22.339Z,-1.20
2023-02-04T23:37:48.872Z,-1.20
2023-02-04T23:40:15.465Z,-1.20
2023-02-04T23:42:42.077Z,-1.20
2023-02-04T23:45:08.773Z,-1.20
2023-02-04T23:47:35.266Z,-1.20
2023-02-04T23:50:02.249Z,-1.20
2023-02-04T23:52:29.478Z,-1.20
2023-02-04T23:54:56.045Z,-1.20
2023-02-04T23:57:22.982Z,-1.30
2023-02-04T23:59:49.518Z,-1.30
